This is the latest recevied weather packets stored in our database for station/object 9A3SWO. If no packets are shown the sender has not sent any weather packets the latest 10 day(s).
| Time | Temp. | Humidity | Pressure | Rain* | Wind** | Luminosity | Snow |
|---|---|---|---|---|---|---|---|
| 1787686092 | 26.67° C | 55% | 1014.3 hPa | - | - | - | - |
| 1787685491 | 26.11° C | 56% | 1014.2 hPa | - | - | - | - |
| 1787684891 | 25.56° C | 61% | 1013.9 hPa | - | - | - | - |
| 1787684291 | 25.56° C | 60% | 1013.7 hPa | - | - | - | - |
| 1787683690 | 25° C | 61% | 1013.6 hPa | - | - | - | - |
| 1787683091 | 25.56° C | 60% | 1013.5 hPa | - | - | - | - |
| 1787682491 | 25.56° C | 59% | 1013.4 hPa | - | - | - | - |
| 1787681891 | 26.11° C | 59% | 1013.1 hPa | - | - | - | - |
| 1787681290 | 26.67° C | 57% | 1012.9 hPa | - | - | - | - |
| 1787680691 | 26.67° C | 57% | 1012.9 hPa | - | - | - | - |
| 1787680090 | 26.67° C | 56% | 1012.8 hPa | - | - | - | - |
| 1787679491 | 27.22° C | 56% | 1012.8 hPa | - | - | - | - |
| 1787678891 | 27.22° C | 54% | 1012.8 hPa | - | - | - | - |
| 1787678290 | 27.22° C | 53% | 1012.7 hPa | - | - | - | - |
| 1787677690 | 27.78° C | 52% | 1012.6 hPa | - | - | - | - |
| 1787677091 | 28.33° C | 49% | 1012.4 hPa | - | - | - | - |
| 1787676490 | 28.33° C | 48% | 1012.4 hPa | - | - | - | - |
| 1787675890 | 28.33° C | 48% | 1012.3 hPa | - | - | - | - |
| 1787675291 | 28.33° C | 47% | 1012.3 hPa | - | - | - | - |
| 1787674691 | 28.33° C | 48% | 1012.3 hPa | - | - | - | - |
| 1787674091 | 28.33° C | 47% | 1012.3 hPa | - | - | - | - |
| 1787673491 | 28.33° C | 47% | 1012.1 hPa | - | - | - | - |
| 1787672890 | 28.33° C | 47% | 1012.2 hPa | - | - | - | - |
| 1787672290 | 28.33° C | 48% | 1012.1 hPa | - | - | - | - |
| 1787671691 | 28.33° C | 48% | 1012.1 hPa | - | - | - | - |
* Rain since midnight (hover to see other rain measurements)
** Current wind speed in m/s (hover to see current wind gust speed)